Ambrie Dupre — WDI2693 — position and weather

sailwx.info

Track history (hours):
 
Tides and Currents Weather Stations Pressure Air Temp Water Temp Dewpoint Dewpoint Depression Visibility Wind Speed Wind Dir Waves Ship Positions

Ambrie Dupre

Owner: Dupre Marine Transportation, LCC, Houma, LA. More information available from US FCC via Universal Licensing System and Coast Guard Vessel Documentation Center.

Last reported at 2018-Jan-22 14:07 UTC. Time now 2018-Jan-23 01:50 UTC.
Position N 29°57' W 093°52'.

Length 23 m; draft 3 m.

Type: . MMSI: 367680760.

Date/timePositionNaut miles runAvg speedWind from/ knotsBaromVisibWave heightAir tempDewpointWater temp
2018-Jan-22 14:07N 29°57' W 093°52'1 5.3
2018-Jan-22 14:00N 29°58' W 093°51'  
2018-Jan-19 17:09N 29°58' W 093°51'1 0.3
2018-Jan-19 14:05N 29°58' W 093°51'0 0.2
2018-Jan-19 13:55N 29°58' W 093°51'0 0.0
2018-Jan-19 13:30N 29°58' W 093°51'0 0.0
2018-Jan-19 13:00N 29°58' W 093°51'0 0.0
2018-Jan-19 12:03N 29°58' W 093°51'0 0.0
2018-Jan-19 11:51N 29°58' W 093°51'0 0.0
2018-Jan-19 11:30N 29°58' W 093°51'7 0.5
2018-Jan-18 22:04N 30°02' W 093°44'2 5.7
2018-Jan-18 21:46N 30°03' W 093°43'2 5.5
2018-Jan-18 21:25N 30°04' W 093°41'4 5.6
2018-Jan-18 20:47N 30°04' W 093°37'2 4.2
2018-Jan-18 20:21N 30°04' W 093°34'2 4.9
2018-Jan-18 19:59N 30°04' W 093°32'2 4.7
2018-Jan-18 19:30N 30°04' W 093°30'2 4.7
2018-Jan-18 19:00N 30°04' W 093°27'2 4.6
2018-Jan-18 18:30N 30°04' W 093°24'2 4.4
2018-Jan-18 18:00N 30°04' W 093°22'2 3.7
2018-Jan-18 17:30N 30°05' W 093°20'2 4.1
2018-Jan-18 17:00N 30°06' W 093°18'1 2.1
2018-Jan-18 16:30N 30°05' W 093°17'1 1.8
2018-Jan-18 16:00N 30°05' W 093°17'1 2.4
2018-Jan-18 15:30N 30°04' W 093°16'2 4.3
2018-Jan-18 15:00N 30°02' W 093°15'2 4.3
2018-Jan-18 14:30N 29°60' W 093°13'2 3.7
2018-Jan-18 14:00N 29°58' W 093°12'2 4.7
2018-Jan-18 13:30N 29°57' W 093°10'2 4.7
2018-Jan-18 13:00N 29°56' W 093°07'2 4.7
2018-Jan-18 12:30N 29°56' W 093°05'38 4.3
2018-Jan-18 03:48N 29°51' W 092°22'1 4.8
2018-Jan-18 03:30N 29°51' W 092°20'2 4.4
2018-Jan-18 03:00N 29°50' W 092°18'2 4.7
2018-Jan-18 02:30N 29°48' W 092°15'3 5.2
2018-Jan-18 02:00N 29°47' W 092°13'1 1.5
2018-Jan-18 01:30N 29°47' W 092°12'2 3.2
2018-Jan-18 01:00N 29°47' W 092°10'4 4.3
2018-Jan-18 00:00N 29°48' W 092°05'0 4.0
2018-Jan-17 23:57N 29°48' W 092°05'  
Track history (hours):
 
Tides and Currents Weather Stations Pressure Air Temp Water Temp Dewpoint Dewpoint Depression Visibility Wind Speed Wind Dir Waves Ship Positions

Ambrie Dupre

Owner: Dupre Marine Transportation, LCC, Houma, LA. More information available from US FCC via Universal Licensing System and Coast Guard Vessel Documentation Center.

Last reported at 2018-Jan-22 14:07 UTC. Time now 2018-Jan-23 01:50 UTC.
Position N 29°57' W 093°52'.

Length 23 m; draft 3 m.

Type: . MMSI: 367680760.

Date/timePositionNaut miles runAvg speedWind from/ knotsBaromVisibWave heightAir tempDewpointWater temp
2018-Jan-22 14:07N 29°57' W 093°52'1 5.3
2018-Jan-22 14:00N 29°58' W 093°51'  
2018-Jan-19 17:09N 29°58' W 093°51'1 0.3
2018-Jan-19 14:05N 29°58' W 093°51'0 0.2
2018-Jan-19 13:55N 29°58' W 093°51'0 0.0
2018-Jan-19 13:30N 29°58' W 093°51'0 0.0
2018-Jan-19 13:00N 29°58' W 093°51'0 0.0
2018-Jan-19 12:03N 29°58' W 093°51'0 0.0
2018-Jan-19 11:51N 29°58' W 093°51'0 0.0
2018-Jan-19 11:30N 29°58' W 093°51'7 0.5
2018-Jan-18 22:04N 30°02' W 093°44'2 5.7
2018-Jan-18 21:46N 30°03' W 093°43'2 5.5
2018-Jan-18 21:25N 30°04' W 093°41'4 5.6
2018-Jan-18 20:47N 30°04' W 093°37'2 4.2
2018-Jan-18 20:21N 30°04' W 093°34'2 4.9
2018-Jan-18 19:59N 30°04' W 093°32'2 4.7
2018-Jan-18 19:30N 30°04' W 093°30'2 4.7
2018-Jan-18 19:00N 30°04' W 093°27'2 4.6
2018-Jan-18 18:30N 30°04' W 093°24'2 4.4
2018-Jan-18 18:00N 30°04' W 093°22'2 3.7
2018-Jan-18 17:30N 30°05' W 093°20'2 4.1
2018-Jan-18 17:00N 30°06' W 093°18'1 2.1
2018-Jan-18 16:30N 30°05' W 093°17'1 1.8
2018-Jan-18 16:00N 30°05' W 093°17'1 2.4
2018-Jan-18 15:30N 30°04' W 093°16'2 4.3
2018-Jan-18 15:00N 30°02' W 093°15'2 4.3
2018-Jan-18 14:30N 29°60' W 093°13'2 3.7
2018-Jan-18 14:00N 29°58' W 093°12'2 4.7
2018-Jan-18 13:30N 29°57' W 093°10'2 4.7
2018-Jan-18 13:00N 29°56' W 093°07'2 4.7
2018-Jan-18 12:30N 29°56' W 093°05'38 4.3
2018-Jan-18 03:48N 29°51' W 092°22'1 4.8
2018-Jan-18 03:30N 29°51' W 092°20'2 4.4
2018-Jan-18 03:00N 29°50' W 092°18'2 4.7
2018-Jan-18 02:30N 29°48' W 092°15'3 5.2
2018-Jan-18 02:00N 29°47' W 092°13'1 1.5
2018-Jan-18 01:30N 29°47' W 092°12'2 3.2
2018-Jan-18 01:00N 29°47' W 092°10'4 4.3
2018-Jan-18 00:00N 29°48' W 092°05'0 4.0
2018-Jan-17 23:57N 29°48' W 092°05'  

Dump ship's entire track history